createdAt,value
2023-04-15T00:01:37.084Z,14.75
2023-04-15T00:04:04.730Z,13.43
2023-04-15T00:06:31.330Z,23.20
2023-04-15T00:08:57.873Z,18.15
2023-04-15T00:11:24.498Z,15.38
2023-04-15T00:13:51.161Z,14.93
2023-04-15T00:16:17.724Z,13.10
2023-04-15T00:18:44.181Z,14.45
2023-04-15T00:21:10.588Z,14.25
2023-04-15T00:23:36.969Z,14.00
2023-04-15T00:26:03.408Z,11.88
2023-04-15T00:28:30.929Z,13.52
2023-04-15T00:30:57.668Z,11.45
2023-04-15T00:33:24.125Z,13.35
2023-04-15T00:35:50.885Z,10.43
2023-04-15T00:38:17.689Z,13.63
2023-04-15T00:40:44.151Z,11.27
2023-04-15T00:43:10.564Z,11.90
2023-04-15T00:45:37.275Z,10.55
2023-04-15T00:48:03.915Z,13.32
2023-04-15T00:50:30.392Z,14.38
2023-04-15T00:52:56.761Z,18.58
2023-04-15T00:55:23.224Z,24.98
2023-04-15T00:57:50.563Z,34.67
2023-04-15T01:00:16.967Z,20.15
2023-04-15T01:02:43.664Z,14.98
2023-04-15T01:05:10.145Z,16.95
2023-04-15T01:07:36.734Z,14.93
2023-04-15T01:10:04.326Z,16.63
2023-04-15T01:12:32.420Z,12.52
2023-04-15T01:14:59.338Z,15.50
2023-04-15T01:17:25.809Z,13.73
2023-04-15T01:19:52.861Z,18.50
2023-04-15T01:22:19.634Z,21.92
2023-04-15T01:25:02.340Z,18.95
2023-04-15T01:27:28.779Z,18.63
2023-04-15T01:29:55.154Z,22.63
2023-04-15T01:32:21.615Z,16.75
2023-04-15T01:34:47.988Z,19.55
2023-04-15T01:37:14.418Z,16.95
2023-04-15T01:39:41.087Z,12.95
2023-04-15T01:42:07.566Z,12.40
2023-04-15T01:44:33.992Z,16.73
2023-04-15T01:47:00.683Z,15.82
2023-04-15T01:49:27.556Z,15.07
2023-04-15T01:51:54.186Z,14.23
2023-04-15T01:54:20.628Z,13.18
2023-04-15T01:56:47.225Z,15.75
2023-04-15T01:59:13.743Z,12.32
2023-04-15T02:01:40.859Z,11.95
2023-04-15T02:04:08.041Z,14.85
2023-04-15T02:06:34.522Z,15.98
2023-04-15T02:09:01.078Z,12.15
2023-04-15T02:11:27.659Z,11.02
2023-04-15T02:13:54.029Z,14.10
2023-04-15T02:16:20.599Z,14.90
2023-04-15T02:18:47.412Z,18.13
2023-04-15T02:21:14.159Z,18.02
2023-04-15T02:23:40.553Z,17.90
2023-04-15T02:26:08.036Z,17.45
2023-04-15T02:28:34.418Z,19.48
2023-04-15T02:31:02.163Z,16.55
2023-04-15T02:33:28.587Z,15.07
2023-04-15T02:35:55.012Z,18.08
2023-04-15T02:38:21.437Z,17.10
2023-04-15T02:40:49.632Z,15.38
2023-04-15T02:43:17.143Z,16.90
2023-04-15T02:45:43.921Z,14.30
2023-04-15T02:48:10.616Z,14.20
2023-04-15T02:50:39.898Z,12.77
2023-04-15T02:53:06.941Z,25.35
2023-04-15T02:55:33.356Z,19.77
2023-04-15T02:58:01.004Z,16.30
2023-04-15T03:00:28.229Z,14.60
2023-04-15T03:02:59.436Z,13.10
2023-04-15T03:05:26.100Z,12.23
2023-04-15T03:07:52.822Z,12.93
2023-04-15T03:10:19.904Z,13.90
2023-04-15T03:12:46.414Z,13.95
2023-04-15T03:15:12.831Z,13.02
2023-04-15T03:17:39.264Z,16.42
2023-04-15T03:20:06.684Z,12.23
2023-04-15T03:22:33.394Z,15.68
2023-04-15T03:24:59.771Z,19.17
2023-04-15T03:27:26.173Z,16.45
2023-04-15T03:29:52.646Z,17.92
2023-04-15T03:32:19.212Z,15.93
2023-04-15T03:34:45.644Z,17.13
2023-04-15T03:37:12.048Z,14.65
2023-04-15T03:39:38.908Z,13.05
2023-04-15T03:42:05.469Z,12.05
2023-04-15T03:44:32.736Z,15.40
2023-04-15T03:46:59.144Z,14.30
2023-04-15T03:49:25.541Z,15.23
2023-04-15T03:51:52.218Z,18.70
2023-04-15T03:54:18.594Z,16.02
2023-04-15T03:56:44.964Z,16.88
2023-04-15T03:59:11.384Z,15.00
2023-04-15T04:01:37.819Z,27.92
2023-04-15T04:04:04.362Z,17.05
2023-04-15T04:06:31.091Z,35.95
2023-04-15T04:08:57.471Z,20.92
2023-04-15T04:11:23.849Z,20.42
2023-04-15T04:13:50.249Z,18.73
2023-04-15T04:16:17.171Z,21.17
2023-04-15T04:18:43.656Z,21.05
2023-04-15T04:21:10.085Z,21.25
2023-04-15T04:23:36.484Z,20.60
2023-04-15T04:26:02.857Z,19.80
2023-04-15T04:28:29.265Z,18.35
2023-04-15T04:30:56.249Z,19.20
2023-04-15T04:33:22.707Z,21.52
2023-04-15T04:35:49.082Z,18.15
2023-04-15T04:38:15.463Z,21.02
2023-04-15T04:40:41.909Z,19.02
2023-04-15T04:43:08.319Z,20.70
2023-04-15T04:45:34.880Z,25.02
2023-04-15T04:48:01.672Z,40.85
2023-04-15T04:50:28.124Z,45.00
2023-04-15T04:52:54.512Z,44.80
2023-04-15T04:55:21.144Z,39.38
2023-04-15T04:57:47.525Z,43.35
2023-04-15T05:00:14.093Z,45.60
2023-04-15T05:02:42.401Z,36.67
2023-04-15T05:05:09.587Z,44.08
2023-04-15T05:07:36.060Z,36.30
2023-04-15T05:10:02.424Z,34.75
2023-04-15T05:12:28.806Z,39.22
2023-04-15T05:14:55.194Z,33.50
2023-04-15T05:17:21.899Z,30.45
2023-04-15T05:19:48.415Z,29.25
2023-04-15T05:22:14.797Z,34.25
2023-04-15T05:24:41.206Z,29.38
2023-04-15T05:27:08.492Z,31.60
2023-04-15T05:29:34.952Z,32.65
2023-04-15T05:32:01.627Z,29.52
2023-04-15T05:34:28.053Z,27.92
2023-04-15T05:36:54.424Z,27.70
2023-04-15T05:39:20.816Z,26.73
2023-04-15T05:41:47.230Z,22.00
2023-04-15T05:44:13.605Z,22.30
2023-04-15T05:46:40.147Z,20.70
2023-04-15T05:49:06.931Z,20.83
2023-04-15T05:51:33.308Z,17.67
2023-04-15T05:53:59.699Z,17.27
2023-04-15T05:56:27.016Z,20.10
2023-04-15T05:58:53.907Z,20.92
2023-04-15T06:01:20.612Z,22.45
2023-04-15T06:03:47.139Z,22.45
2023-04-15T06:06:14.296Z,23.83
2023-04-15T06:08:41.019Z,22.63
2023-04-15T06:11:07.403Z,23.13
2023-04-15T06:13:34.810Z,25.40
2023-04-15T06:16:01.502Z,27.42
2023-04-15T06:18:27.938Z,24.58
2023-04-15T06:20:54.329Z,25.48
2023-04-15T06:23:21.120Z,24.42
2023-04-15T06:25:47.602Z,24.90
2023-04-15T06:28:13.963Z,30.52
2023-04-15T06:30:40.413Z,25.33
2023-04-15T06:33:07.338Z,27.25
2023-04-15T06:35:33.721Z,26.02
2023-04-15T06:38:00.193Z,22.25
2023-04-15T06:40:26.795Z,21.65
2023-04-15T06:42:53.195Z,21.05
2023-04-15T06:45:19.580Z,25.30
2023-04-15T06:47:46.070Z,21.80
2023-04-15T06:50:12.510Z,32.15
2023-04-15T06:52:38.920Z,21.35
2023-04-15T06:55:06.883Z,23.55
2023-04-15T06:57:34.911Z,22.85
2023-04-15T07:00:01.975Z,21.35
2023-04-15T07:02:28.443Z,25.83
2023-04-15T07:04:55.485Z,22.25
2023-04-15T07:07:21.854Z,22.23
2023-04-15T07:09:48.313Z,21.90
2023-04-15T07:12:14.696Z,21.45
2023-04-15T07:14:41.114Z,20.40
2023-04-15T07:17:08.763Z,21.92
2023-04-15T07:19:35.819Z,20.83
2023-04-15T07:22:02.211Z,23.17
2023-04-15T07:24:28.644Z,27.80
2023-04-15T07:26:58.648Z,24.73
2023-04-15T07:29:27.047Z,20.67
2023-04-15T07:31:53.431Z,22.58
2023-04-15T07:34:20.745Z,21.65
2023-04-15T07:36:50.453Z,20.45
2023-04-15T07:39:16.900Z,23.40
2023-04-15T07:41:43.287Z,18.38
2023-04-15T07:44:09.901Z,17.77
2023-04-15T07:46:37.232Z,15.35
2023-04-15T07:49:04.277Z,16.48
2023-04-15T07:51:32.214Z,16.70
2023-04-15T07:53:59.180Z,19.05
2023-04-15T07:56:26.404Z,15.35
2023-04-15T07:58:52.950Z,17.30
2023-04-15T08:01:19.328Z,16.48
2023-04-15T08:03:45.867Z,19.15
2023-04-15T08:06:12.383Z,18.05
2023-04-15T08:08:38.741Z,19.50
2023-04-15T08:11:05.298Z,16.40
2023-04-15T08:13:31.678Z,17.50
2023-04-15T08:16:22.555Z,15.52
2023-04-15T08:18:50.206Z,19.88
2023-04-15T08:21:17.759Z,15.80
2023-04-15T08:23:45.421Z,13.50
2023-04-15T08:26:12.791Z,13.98
2023-04-15T08:28:42.421Z,15.45
2023-04-15T08:31:09.561Z,15.73
2023-04-15T08:33:36.209Z,13.38
2023-04-15T08:36:03.244Z,15.55
2023-04-15T08:38:29.626Z,12.65
2023-04-15T08:40:57.262Z,13.27
2023-04-15T08:43:28.290Z,15.82
2023-04-15T08:45:55.294Z,13.13
2023-04-15T08:48:22.704Z,13.32
2023-04-15T08:50:49.096Z,14.55
2023-04-15T08:53:15.629Z,18.50
2023-04-15T08:55:46.412Z,11.98
2023-04-15T08:58:14.050Z,13.10
2023-04-15T09:00:41.294Z,15.73
2023-04-15T09:03:09.128Z,15.68
2023-04-15T09:05:36.592Z,16.77
2023-04-15T09:08:03.921Z,14.60
2023-04-15T09:10:30.873Z,16.17
2023-04-15T09:12:57.395Z,16.63
2023-04-15T09:15:29.855Z,18.55
2023-04-15T09:17:56.810Z,17.50
2023-04-15T09:20:23.651Z,17.45
2023-04-15T09:22:51.017Z,19.08
2023-04-15T09:25:24.218Z,17.20
2023-04-15T09:27:51.825Z,15.40
2023-04-15T09:30:18.335Z,18.88
2023-04-15T09:32:55.651Z,16.08
2023-04-15T09:35:22.945Z,15.93
2023-04-15T09:37:50.303Z,16.80
2023-04-15T09:40:32.686Z,15.70
2023-04-15T09:45:29.366Z,14.93
2023-04-15T09:47:59.149Z,13.15
2023-04-15T09:50:29.542Z,13.38
2023-04-15T09:52:56.358Z,14.15
2023-04-15T09:55:22.924Z,14.73
2023-04-15T09:57:49.385Z,16.27
2023-04-15T10:00:16.031Z,13.50
2023-04-15T10:02:43.260Z,13.60
2023-04-15T10:05:14.915Z,15.05
2023-04-15T10:07:42.818Z,14.80
2023-04-15T10:10:11.008Z,16.48
2023-04-15T10:12:38.152Z,14.63
2023-04-15T10:15:05.615Z,11.35
2023-04-15T10:17:35.215Z,15.00
2023-04-15T10:20:03.516Z,15.82
2023-04-15T10:22:30.648Z,15.60
2023-04-15T10:24:57.567Z,11.77
2023-04-15T10:27:24.538Z,14.02
2023-04-15T10:29:51.293Z,12.55
2023-04-15T10:32:19.831Z,13.65
2023-04-15T10:34:47.829Z,15.10
2023-04-15T10:37:23.570Z,14.55
2023-04-15T10:39:50.647Z,12.50
2023-04-15T10:42:19.293Z,14.18
2023-04-15T10:44:49.125Z,14.02
2023-04-15T10:47:18.979Z,14.73
2023-04-15T10:49:57.102Z,15.20
2023-04-15T10:52:25.992Z,10.93
2023-04-15T10:55:11.108Z,11.20
2023-04-15T10:57:41.956Z,10.85
2023-04-15T11:00:09.013Z,10.25
2023-04-15T11:02:56.956Z,9.52
2023-04-15T11:05:49.934Z,12.20
2023-04-15T11:08:16.706Z,11.65
2023-04-15T11:10:42.990Z,11.73
2023-04-15T11:13:09.283Z,10.98
2023-04-15T11:15:44.892Z,14.50
2023-04-15T11:18:19.157Z,14.60
2023-04-15T11:20:50.834Z,13.05
2023-04-15T11:23:27.494Z,14.88
2023-04-15T11:25:56.217Z,11.43
2023-04-15T11:28:25.825Z,10.65
2023-04-15T11:30:52.247Z,9.27
2023-04-15T11:33:18.614Z,11.77
2023-04-15T11:35:45.024Z,12.65
2023-04-15T11:38:12.886Z,10.15
2023-04-15T11:40:39.841Z,10.52
2023-04-15T11:43:20.972Z,10.57
2023-04-15T11:45:51.399Z,11.10
2023-04-15T11:48:18.673Z,11.98
2023-04-15T11:50:45.410Z,12.13
2023-04-15T11:53:13.531Z,10.85
2023-04-15T11:55:44.668Z,11.90
2023-04-15T11:58:12.864Z,11.02
2023-04-15T12:00:41.141Z,12.38
2023-04-15T12:03:36.100Z,11.30
2023-04-15T12:06:21.868Z,12.20
2023-04-15T12:08:55.233Z,12.60
2023-04-15T12:11:29.372Z,12.10
2023-04-15T12:14:22.699Z,12.02
2023-04-15T12:16:53.836Z,11.93
2023-04-15T12:19:23.323Z,11.13
2023-04-15T12:21:49.999Z,11.15
2023-04-15T12:24:21.011Z,10.60
2023-04-15T12:26:53.483Z,11.95
2023-04-15T12:29:21.043Z,11.05
2023-04-15T12:31:48.687Z,12.07
2023-04-15T12:34:15.722Z,11.80
2023-04-15T12:36:42.392Z,10.65
2023-04-15T12:39:08.894Z,9.93
2023-04-15T12:41:35.383Z,13.13
2023-04-15T12:44:02.018Z,13.48
2023-04-15T12:46:28.654Z,9.55
2023-04-15T12:48:55.031Z,10.10
2023-04-15T12:51:21.722Z,9.82
2023-04-15T12:53:49.495Z,11.13
2023-04-15T12:56:16.965Z,9.38
2023-04-15T12:58:43.393Z,9.75
2023-04-15T13:01:10.661Z,11.07
2023-04-15T13:03:37.211Z,12.32
2023-04-15T13:06:04.827Z,9.40
2023-04-15T13:08:31.680Z,11.57
2023-04-15T13:10:58.115Z,11.52
2023-04-15T13:13:24.543Z,10.90
2023-04-15T13:15:51.076Z,10.65
2023-04-15T13:18:17.534Z,8.02
2023-04-15T13:20:43.916Z,8.40
2023-04-15T13:23:10.513Z,8.27
2023-04-15T13:25:36.910Z,7.20
2023-04-15T13:28:03.347Z,6.97
2023-04-15T13:30:29.727Z,8.68
2023-04-15T13:32:56.124Z,7.35
2023-04-15T13:35:22.525Z,7.30
2023-04-15T13:37:48.899Z,7.43
2023-04-15T13:40:15.462Z,7.68
2023-04-15T13:42:42.688Z,7.57
2023-04-15T13:45:09.722Z,7.88
2023-04-15T13:47:36.476Z,9.13
2023-04-15T13:50:02.935Z,7.93
2023-04-15T13:52:30.466Z,7.13
2023-04-15T13:55:07.483Z,8.52
2023-04-15T13:57:43.285Z,6.60
2023-04-15T14:00:10.452Z,6.30
2023-04-15T14:02:36.971Z,5.90
2023-04-15T14:05:03.598Z,7.35
2023-04-15T14:07:30.794Z,6.90
2023-04-15T14:09:57.236Z,5.95
2023-04-15T14:12:23.642Z,6.32
2023-04-15T14:14:50.022Z,5.80
2023-04-15T14:17:16.426Z,8.98
2023-04-15T14:19:42.857Z,6.50
2023-04-15T14:22:09.234Z,7.18
2023-04-15T14:24:35.701Z,7.97
2023-04-15T14:27:02.174Z,11.32
2023-04-15T14:29:28.557Z,5.78
2023-04-15T14:32:04.127Z,7.22
2023-04-15T14:34:37.603Z,8.57
2023-04-15T14:37:04.080Z,7.80
2023-04-15T14:39:31.080Z,6.70
2023-04-15T14:41:57.568Z,8.40
2023-04-15T14:44:24.109Z,7.03
2023-04-15T14:46:51.674Z,8.52
2023-04-15T14:49:18.110Z,8.75
2023-04-15T14:51:44.597Z,6.72
2023-04-15T14:54:11.001Z,10.02
2023-04-15T14:56:37.388Z,8.35
2023-04-15T14:59:03.872Z,9.70
2023-04-15T15:01:30.439Z,7.55
2023-04-15T15:03:57.137Z,11.25
2023-04-15T15:06:23.537Z,8.90
2023-04-15T15:08:49.939Z,7.13
2023-04-15T15:11:16.943Z,8.70
2023-04-15T15:13:43.352Z,7.97
2023-04-15T15:16:10.994Z,8.20
2023-04-15T15:18:38.952Z,10.00
2023-04-15T15:21:05.438Z,9.38
2023-04-15T15:23:31.983Z,13.15
2023-04-15T15:25:58.970Z,11.35
2023-04-15T15:28:25.549Z,10.60
2023-04-15T15:30:51.962Z,11.32
2023-04-15T15:33:18.359Z,13.50
2023-04-15T15:35:44.766Z,12.85
2023-04-15T15:38:11.720Z,12.68
2023-04-15T15:40:38.085Z,14.48
2023-04-15T15:43:04.733Z,12.75
2023-04-15T15:45:31.366Z,13.48
2023-04-15T15:47:58.768Z,9.13
2023-04-15T15:50:25.219Z,13.10
2023-04-15T15:52:51.696Z,9.70
2023-04-15T15:55:18.116Z,7.72
2023-04-15T15:57:44.553Z,9.02
2023-04-15T16:00:12.702Z,8.65
2023-04-15T16:03:05.241Z,9.02
2023-04-15T16:05:25.974Z,8.93
2023-04-15T16:07:52.399Z,10.18
2023-04-15T16:10:18.802Z,9.23
2023-04-15T16:12:45.358Z,9.50
2023-04-15T16:15:12.288Z,9.02
2023-04-15T16:17:38.789Z,12.35
2023-04-15T16:20:06.128Z,11.07
2023-04-15T16:22:34.212Z,11.50
2023-04-15T16:25:01.192Z,10.20
2023-04-15T16:27:27.946Z,11.25
2023-04-15T16:29:54.337Z,12.82
2023-04-15T16:32:20.837Z,17.92
2023-04-15T16:34:47.382Z,14.57
2023-04-15T16:37:13.832Z,17.58
2023-04-15T16:39:40.618Z,14.30
2023-04-15T16:42:07.365Z,8.80
2023-04-15T16:44:33.896Z,10.45
2023-04-15T16:47:02.189Z,10.20
2023-04-15T16:49:29.427Z,10.77
2023-04-15T16:51:55.869Z,12.80
2023-04-15T16:54:22.253Z,10.73
2023-04-15T16:56:48.664Z,13.98
2023-04-15T16:59:15.041Z,13.60
2023-04-15T17:01:41.588Z,15.43
2023-04-15T17:04:08.125Z,15.70
2023-04-15T17:06:34.601Z,14.38
2023-04-15T17:09:01.006Z,13.95
2023-04-15T17:11:27.993Z,13.50
2023-04-15T17:13:54.401Z,16.65
2023-04-15T17:16:20.870Z,16.08
2023-04-15T17:18:47.427Z,15.38
2023-04-15T17:21:16.034Z,13.50
2023-04-15T17:23:42.456Z,11.00
2023-04-15T17:26:08.854Z,12.65
2023-04-15T17:28:35.259Z,9.95
2023-04-15T17:31:01.696Z,10.70
2023-04-15T17:34:00.644Z,10.63
2023-04-15T17:36:14.668Z,10.57
2023-04-15T17:38:41.038Z,10.38
2023-04-15T17:41:07.810Z,10.77
2023-04-15T17:43:34.230Z,9.80
2023-04-15T17:46:00.768Z,10.85
2023-04-15T17:48:27.413Z,9.63
2023-04-15T17:50:53.889Z,10.25
2023-04-15T17:53:20.295Z,13.98
2023-04-15T17:55:46.665Z,14.25
2023-04-15T17:58:13.067Z,13.25
2023-04-15T18:00:39.441Z,15.55
2023-04-15T18:03:06.045Z,11.80
2023-04-15T18:05:32.488Z,14.65
2023-04-15T18:07:58.931Z,13.50
2023-04-15T18:10:25.476Z,12.00
2023-04-15T18:12:51.879Z,14.50
2023-04-15T18:15:18.691Z,15.75
2023-04-15T18:17:45.195Z,19.25
2023-04-15T18:20:12.641Z,18.27
2023-04-15T18:22:39.024Z,14.18
2023-04-15T18:25:06.038Z,19.35
2023-04-15T18:27:33.582Z,17.38
2023-04-15T18:30:00.073Z,18.80
2023-04-15T18:32:31.185Z,17.23
2023-04-15T18:34:58.201Z,15.90
2023-04-15T18:37:24.645Z,19.77
2023-04-15T18:39:51.355Z,18.83
2023-04-15T18:42:17.778Z,20.30
2023-04-15T18:44:44.165Z,28.15
2023-04-15T18:47:10.672Z,21.70
2023-04-15T18:49:37.034Z,20.27
2023-04-15T18:52:04.030Z,23.15
2023-04-15T18:54:30.603Z,23.92
2023-04-15T18:56:57.206Z,20.15
2023-04-15T18:59:29.280Z,18.45
2023-04-15T19:01:57.557Z,20.13
2023-04-15T19:04:24.041Z,17.55
2023-04-15T19:06:50.614Z,23.90
2023-04-15T19:09:17.206Z,29.42
2023-04-15T19:11:43.914Z,23.42
2023-04-15T19:14:10.763Z,28.92
2023-04-15T19:16:37.258Z,27.52
2023-04-15T19:19:03.968Z,23.60
2023-04-15T19:21:31.828Z,21.75
2023-04-15T19:23:58.313Z,22.60
2023-04-15T19:26:24.681Z,22.98
2023-04-15T19:28:53.074Z,31.25
2023-04-15T19:31:20.219Z,21.40
2023-04-15T19:33:46.872Z,21.75
2023-04-15T19:36:13.292Z,21.45
2023-04-15T19:38:39.663Z,26.33
2023-04-15T19:41:06.143Z,35.83
2023-04-15T19:43:32.551Z,30.88
2023-04-15T19:45:58.959Z,32.58
2023-04-15T19:48:25.773Z,35.88
2023-04-15T19:50:52.145Z,37.92
2023-04-15T19:53:18.538Z,31.95
2023-04-15T19:55:44.952Z,35.38
2023-04-15T19:58:11.512Z,28.75
2023-04-15T20:00:38.109Z,32.00
2023-04-15T20:03:04.978Z,20.75
2023-04-15T20:05:31.572Z,24.33
2023-04-15T20:07:59.815Z,20.20
2023-04-15T20:10:26.407Z,20.08
2023-04-15T20:12:53.494Z,19.27
2023-04-15T20:15:23.534Z,18.52
2023-04-15T20:17:50.228Z,20.98
2023-04-15T20:20:16.791Z,25.38
2023-04-15T20:22:43.242Z,22.48
2023-04-15T20:25:09.784Z,19.95
2023-04-15T20:27:36.213Z,21.65
2023-04-15T20:30:04.690Z,23.58
2023-04-15T20:32:35.188Z,16.17
2023-04-15T20:35:02.650Z,22.05
2023-04-15T20:37:30.396Z,21.75
2023-04-15T20:39:56.769Z,21.35
2023-04-15T20:42:23.309Z,29.80
2023-04-15T20:44:49.674Z,31.85
2023-04-15T20:47:16.362Z,27.85
2023-04-15T20:49:42.833Z,27.40
2023-04-15T20:52:09.386Z,31.20
2023-04-15T20:54:35.841Z,31.75
2023-04-15T20:57:02.475Z,27.42
2023-04-15T20:59:28.902Z,28.42
2023-04-15T21:01:57.026Z,28.20
2023-04-15T21:04:24.375Z,31.98
2023-04-15T21:06:52.015Z,28.92
2023-04-15T21:09:18.762Z,28.67
2023-04-15T21:12:00.333Z,31.15
2023-04-15T21:14:27.762Z,30.58
2023-04-15T21:16:54.205Z,33.78
2023-04-15T21:19:20.611Z,27.38
2023-04-15T21:21:47.011Z,29.08
2023-04-15T21:24:13.394Z,32.25
2023-04-15T21:26:39.761Z,31.77
2023-04-15T21:29:08.766Z,35.75
2023-04-15T21:31:37.035Z,36.85
2023-04-15T21:34:03.614Z,33.35
2023-04-15T21:36:30.165Z,38.60
2023-04-15T21:38:56.569Z,33.78
2023-04-15T21:41:22.950Z,35.47
2023-04-15T21:43:49.358Z,35.72
2023-04-15T21:46:22.418Z,30.52
2023-04-15T21:48:52.262Z,35.55
2023-04-15T21:51:18.695Z,28.50
2023-04-15T21:53:45.250Z,30.80
2023-04-15T21:56:11.919Z,35.95
2023-04-15T21:58:38.348Z,41.00
2023-04-15T22:01:04.942Z,32.92
2023-04-15T22:03:33.819Z,41.75
2023-04-15T22:06:01.762Z,42.38
2023-04-15T22:08:28.168Z,37.40
2023-04-15T22:10:54.986Z,51.67
2023-04-15T22:13:21.360Z,48.97
2023-04-15T22:15:48.119Z,46.05
2023-04-15T22:18:14.580Z,50.13
2023-04-15T22:20:41.008Z,48.53
2023-04-15T22:23:10.300Z,49.85
2023-04-15T22:25:37.247Z,55.67
2023-04-15T22:28:06.822Z,58.20
2023-04-15T22:30:37.179Z,67.75
2023-04-15T22:33:03.686Z,63.03
2023-04-15T22:35:30.057Z,59.90
2023-04-15T22:37:56.447Z,67.65
2023-04-15T22:40:22.809Z,66.88
2023-04-15T22:42:49.203Z,60.13
2023-04-15T22:45:15.893Z,63.17
2023-04-15T22:47:42.315Z,54.58
2023-04-15T22:50:09.004Z,62.20
2023-04-15T22:52:35.491Z,61.65
2023-04-15T22:55:01.859Z,61.58
2023-04-15T22:57:28.408Z,61.38
2023-04-15T22:59:54.837Z,57.88
2023-04-15T23:02:21.486Z,48.72
2023-04-15T23:04:48.131Z,55.90
2023-04-15T23:07:14.616Z,60.60
2023-04-15T23:09:40.981Z,67.30
2023-04-15T23:12:07.435Z,68.72
2023-04-15T23:14:33.824Z,62.88
2023-04-15T23:17:00.193Z,72.50
2023-04-15T23:19:26.569Z,69.63
2023-04-15T23:21:53.926Z,67.38
2023-04-15T23:24:20.533Z,71.65
2023-04-15T23:26:46.927Z,77.55
2023-04-15T23:29:13.357Z,68.53
2023-04-15T23:31:41.653Z,68.05
2023-04-15T23:34:08.155Z,71.40
2023-04-15T23:36:34.519Z,66.10
2023-04-15T23:39:00.896Z,64.07
2023-04-15T23:41:27.275Z,71.63
2023-04-15T23:43:53.648Z,77.68
2023-04-15T23:46:20.152Z,75.53
2023-04-15T23:48:47.797Z,75.47
2023-04-15T23:51:14.191Z,80.97
2023-04-15T23:53:40.694Z,70.10
2023-04-15T23:56:07.370Z,77.75
2023-04-15T23:58:34.687Z,82.93
